createdAt,value
2018-07-07T14:46:22.087Z,38.92
2018-07-07T14:47:21.716Z,39.31
2018-07-07T14:48:21.686Z,39.22
2018-07-07T14:49:21.640Z,39.34
2018-07-07T14:50:21.616Z,39.19
2018-07-07T14:51:21.607Z,38.97
2018-07-07T14:52:21.687Z,38.92
2018-07-07T14:53:21.572Z,39.03
2018-07-07T14:54:21.567Z,38.89
2018-07-07T14:55:21.558Z,38.70
2018-07-07T14:56:21.517Z,38.84
2018-07-07T14:57:21.489Z,38.90
2018-07-07T14:58:21.645Z,39.00
2018-07-07T14:59:21.468Z,39.34
2018-07-07T15:00:21.442Z,38.83
2018-07-07T15:01:21.424Z,38.89
2018-07-07T15:02:21.414Z,38.71
2018-07-07T15:03:21.543Z,38.31
2018-07-07T15:04:21.496Z,37.81
2018-07-07T15:05:21.363Z,37.19
2018-07-07T15:06:21.340Z,37.45
2018-07-07T15:07:21.320Z,37.74
2018-07-07T15:08:21.341Z,38.27
2018-07-07T15:09:21.397Z,38.15
2018-07-07T15:10:21.255Z,38.70
2018-07-07T15:11:21.258Z,38.62
2018-07-07T15:12:21.232Z,38.80
2018-07-07T15:13:21.250Z,38.81
2018-07-07T15:14:21.314Z,38.90
2018-07-07T15:15:21.186Z,38.77
2018-07-07T15:16:21.155Z,39.01
2018-07-07T15:17:21.159Z,38.80
2018-07-07T15:18:21.164Z,38.78
2018-07-07T15:19:21.201Z,38.80
2018-07-07T15:20:21.113Z,38.80
2018-07-07T15:21:21.094Z,38.99
2018-07-07T15:22:21.077Z,38.93
2018-07-07T15:23:21.059Z,39.20
2018-07-07T15:24:21.088Z,39.50
2018-07-07T15:25:21.025Z,39.78
2018-07-07T15:26:21.021Z,39.84
2018-07-07T15:27:21.011Z,40.12
2018-07-07T15:28:20.979Z,39.69
2018-07-07T15:29:21.085Z,39.38
2018-07-07T15:30:21.009Z,39.69
2018-07-07T15:31:20.932Z,39.68
2018-07-07T15:32:20.916Z,39.72
2018-07-07T15:33:20.906Z,39.76
2018-07-07T15:34:21.097Z,39.52
2018-07-07T15:35:20.873Z,39.88
2018-07-07T15:36:20.857Z,39.65
2018-07-07T15:37:20.856Z,39.04
2018-07-07T15:38:20.845Z,38.70
2018-07-07T15:39:20.929Z,39.03
2018-07-07T15:40:20.792Z,39.46
2018-07-07T15:41:20.791Z,39.99
2018-07-07T15:42:20.778Z,40.21
2018-07-07T15:43:20.736Z,40.32
2018-07-07T15:44:20.750Z,40.34
2018-07-07T15:45:20.759Z,40.20
2018-07-07T15:46:20.701Z,38.70
2018-07-07T15:47:20.693Z,38.62
2018-07-07T15:48:20.685Z,39.34
2018-07-07T15:49:20.692Z,39.54
2018-07-07T15:50:20.720Z,39.76
2018-07-07T15:51:20.676Z,40.21
2018-07-07T15:52:20.692Z,40.22
2018-07-07T15:53:20.593Z,40.22
2018-07-07T15:54:20.592Z,40.54
2018-07-07T15:55:20.674Z,40.59
2018-07-07T15:56:20.622Z,40.24
2018-07-07T15:57:20.579Z,40.13
2018-07-07T15:58:20.537Z,40.52
2018-07-07T15:59:20.520Z,40.50
2018-07-07T16:00:20.493Z,40.63
2018-07-07T16:01:20.523Z,40.48
2018-07-07T16:02:20.501Z,40.05
2018-07-07T16:03:20.444Z,39.83
2018-07-07T16:04:20.417Z,38.47
2018-07-07T16:05:20.409Z,37.87
2018-07-07T16:06:20.415Z,38.24
2018-07-07T16:07:20.478Z,38.22
2018-07-07T16:08:20.414Z,38.10
2018-07-07T16:09:20.372Z,38.20
2018-07-07T16:10:20.330Z,38.58
2018-07-07T16:11:20.336Z,38.96
2018-07-07T16:12:20.412Z,38.80
2018-07-07T16:13:20.306Z,37.33
2018-07-07T16:14:20.271Z,37.27
2018-07-07T16:15:20.312Z,37.27
2018-07-07T16:16:20.250Z,36.56
2018-07-07T16:17:20.413Z,36.19
2018-07-07T16:18:20.226Z,36.95
2018-07-07T16:19:20.201Z,36.86
2018-07-07T16:20:20.214Z,35.84
2018-07-07T16:21:20.194Z,35.34
2018-07-07T16:22:20.268Z,35.23
2018-07-07T16:23:20.168Z,36.02
2018-07-07T16:24:20.178Z,36.92
2018-07-07T16:25:20.122Z,37.18
2018-07-07T16:26:20.120Z,37.54
2018-07-07T16:27:20.209Z,36.52
2018-07-07T16:28:20.095Z,36.02
2018-07-07T16:29:20.086Z,35.13
2018-07-07T16:30:20.023Z,34.90
2018-07-07T16:31:20.058Z,34.21
2018-07-07T16:32:20.108Z,33.83
2018-07-07T16:33:20.015Z,33.26
2018-07-07T16:34:19.981Z,32.80
2018-07-07T16:35:19.979Z,32.76
2018-07-07T16:36:19.969Z,32.49
2018-07-07T16:37:19.998Z,32.25
2018-07-07T16:38:19.944Z,32.34
2018-07-07T16:39:19.897Z,32.19
2018-07-07T16:40:19.907Z,32.34
2018-07-07T16:41:20.007Z,32.20
2018-07-07T16:42:19.873Z,32.24
2018-07-07T16:43:19.946Z,32.28
2018-07-07T16:44:19.817Z,32.27
2018-07-07T16:45:19.854Z,32.20
2018-07-07T16:46:19.796Z,31.91
2018-07-07T16:47:19.784Z,31.68
2018-07-07T16:48:19.755Z,31.58
2018-07-07T16:49:19.876Z,31.62
2018-07-07T16:50:19.719Z,31.65
2018-07-07T16:51:19.699Z,31.68
2018-07-07T16:52:19.688Z,31.72
2018-07-07T16:53:19.685Z,31.77
2018-07-07T16:54:19.823Z,32.27
2018-07-07T16:55:19.629Z,32.65
2018-07-07T16:56:19.620Z,33.31
2018-07-07T16:57:19.634Z,33.34
2018-07-07T16:58:19.581Z,32.99
2018-07-07T16:59:19.743Z,33.17
2018-07-07T17:00:19.588Z,33.02
2018-07-07T17:01:19.540Z,33.06
2018-07-07T17:02:19.528Z,33.23
2018-07-07T17:03:19.490Z,33.37
2018-07-07T17:04:19.688Z,33.16
2018-07-07T17:05:19.470Z,32.93
2018-07-07T17:06:19.450Z,32.90
2018-07-07T17:07:19.422Z,33.36
2018-07-07T17:08:19.402Z,33.20
2018-07-07T17:09:19.408Z,33.24
2018-07-07T17:10:19.480Z,33.23
2018-07-07T17:11:19.376Z,32.93
2018-07-07T17:12:19.335Z,32.96
2018-07-07T17:13:19.323Z,32.72
2018-07-07T17:14:19.305Z,32.93
2018-07-07T17:15:19.295Z,33.01
2018-07-07T17:16:19.375Z,32.99
2018-07-07T17:17:19.262Z,33.23
2018-07-07T17:18:19.293Z,33.21
2018-07-07T17:19:19.243Z,33.58
2018-07-07T17:20:19.222Z,33.58
2018-07-07T17:21:19.331Z,34.30
2018-07-07T17:22:19.164Z,34.37
2018-07-07T17:23:19.276Z,34.46
2018-07-07T17:24:19.128Z,34.83
2018-07-07T17:25:19.128Z,35.11
2018-07-07T17:26:19.208Z,34.86
2018-07-07T17:27:19.077Z,34.55
2018-07-07T17:28:19.080Z,33.84
2018-07-07T17:29:19.037Z,33.17
2018-07-07T17:30:19.048Z,32.89
2018-07-07T17:31:19.008Z,32.84
2018-07-07T17:32:19.092Z,32.74
2018-07-07T17:33:18.970Z,32.54
2018-07-07T17:34:18.948Z,32.67
2018-07-07T17:35:18.952Z,32.69
2018-07-07T17:36:18.937Z,32.50
2018-07-07T17:37:18.954Z,32.38
2018-07-07T17:38:19.010Z,32.34
2018-07-07T17:39:18.950Z,32.30
2018-07-07T17:40:18.855Z,32.17
2018-07-07T17:41:18.929Z,31.94
2018-07-07T17:42:19.316Z,31.56
2018-07-07T17:43:19.021Z,31.23
2018-07-07T17:44:18.848Z,31.08
2018-07-07T17:45:18.813Z,30.96
2018-07-07T17:46:18.893Z,30.94
2018-07-07T17:47:18.738Z,30.70
2018-07-07T17:48:18.814Z,30.70
2018-07-07T17:49:18.743Z,30.45
2018-07-07T17:50:18.679Z,30.37
2018-07-07T17:51:18.665Z,30.25
2018-07-07T17:52:18.649Z,30.32
2018-07-07T17:53:18.784Z,30.32
2018-07-07T17:54:18.600Z,30.31
2018-07-07T17:55:18.583Z,30.39
2018-07-07T17:56:18.641Z,30.52
2018-07-07T17:57:18.560Z,30.79
2018-07-07T17:58:18.613Z,30.93
2018-07-07T17:59:18.531Z,31.23
2018-07-07T18:00:18.521Z,31.28
2018-07-07T18:01:18.487Z,31.30
2018-07-07T18:02:18.460Z,31.41
2018-07-07T18:03:18.431Z,31.34
2018-07-07T18:04:18.506Z,31.25
2018-07-07T18:05:18.393Z,30.96
2018-07-07T18:06:18.390Z,30.73
2018-07-07T18:07:18.363Z,30.47
2018-07-07T18:08:18.352Z,30.19
2018-07-07T18:09:18.317Z,30.09
2018-07-07T18:10:18.397Z,30.06
2018-07-07T18:11:18.318Z,29.95
2018-07-07T18:12:18.273Z,29.94
2018-07-07T18:13:18.260Z,29.65
2018-07-07T18:14:18.284Z,29.70
2018-07-07T18:15:18.352Z,29.63
2018-07-07T18:16:18.216Z,29.81
2018-07-07T18:17:18.148Z,29.72
2018-07-07T18:18:18.145Z,29.65
2018-07-07T18:19:18.256Z,29.89
2018-07-07T18:20:18.189Z,30.11
2018-07-07T18:21:18.257Z,30.28
2018-07-07T18:22:18.127Z,30.39
2018-07-07T18:23:18.051Z,30.59
2018-07-07T18:24:18.077Z,30.62
2018-07-07T18:25:18.016Z,30.91
2018-07-07T18:26:18.110Z,30.67
2018-07-07T18:27:18.074Z,30.59
2018-07-07T18:28:17.958Z,30.57
2018-07-07T18:29:17.913Z,30.39
2018-07-07T18:30:17.945Z,30.21
2018-07-07T18:31:17.872Z,30.31
2018-07-07T18:32:17.965Z,29.97
2018-07-07T18:33:17.848Z,29.97
2018-07-07T18:34:17.823Z,29.72
2018-07-07T18:35:17.813Z,29.81
2018-07-07T18:36:17.806Z,29.84
2018-07-07T18:37:17.854Z,29.58
2018-07-07T18:38:17.745Z,29.50
2018-07-07T18:39:17.735Z,29.30
2018-07-07T18:40:17.705Z,29.36
2018-07-07T18:41:17.695Z,29.23
2018-07-07T18:42:17.777Z,28.82
2018-07-07T18:43:17.688Z,28.60
2018-07-07T18:44:17.666Z,28.64
2018-07-07T18:45:17.649Z,28.60
2018-07-07T18:46:17.650Z,28.42
2018-07-07T18:47:17.709Z,28.33
2018-07-07T18:48:17.557Z,28.38
2018-07-07T18:49:17.532Z,28.24
2018-07-07T18:50:17.519Z,28.05
2018-07-07T18:51:17.519Z,28.02
2018-07-07T18:52:17.473Z,27.93
2018-07-07T18:53:17.545Z,27.80
2018-07-07T18:54:17.428Z,27.62
2018-07-07T18:55:17.435Z,27.52
2018-07-07T18:56:17.461Z,27.41
2018-07-07T18:57:17.365Z,27.36
2018-07-07T18:58:17.337Z,27.09
2018-07-07T18:59:17.369Z,26.96
2018-07-07T19:00:17.296Z,26.91
2018-07-07T19:01:17.281Z,26.94
2018-07-07T19:02:17.248Z,26.89
2018-07-07T19:03:17.296Z,26.89
2018-07-07T19:04:17.266Z,26.82
2018-07-07T19:05:17.280Z,26.72
2018-07-07T19:06:17.160Z,26.74
2018-07-07T19:07:17.130Z,26.78
2018-07-07T19:08:17.127Z,26.76
2018-07-07T19:09:17.109Z,26.86
2018-07-07T19:10:17.143Z,26.94
2018-07-07T19:11:17.206Z,26.93
2018-07-07T19:12:17.057Z,26.91
2018-07-07T19:13:17.016Z,26.99
2018-07-07T19:14:17.040Z,27.04
2018-07-07T19:15:16.987Z,27.21
2018-07-07T19:16:17.060Z,27.16
2018-07-07T19:17:16.958Z,27.28
2018-07-07T19:18:16.911Z,27.24
2018-07-07T19:19:16.957Z,27.27
2018-07-07T19:20:16.854Z,27.13
2018-07-07T19:21:16.884Z,27.19
2018-07-07T19:22:16.838Z,27.12
2018-07-07T19:23:16.796Z,27.13
2018-07-07T19:24:16.791Z,27.09
2018-07-07T19:25:16.755Z,27.09
2018-07-07T19:26:16.904Z,27.11
2018-07-07T19:27:16.700Z,27.15
2018-07-07T19:28:16.685Z,27.27
2018-07-07T19:29:16.751Z,27.19
2018-07-07T19:30:16.662Z,27.24
2018-07-07T19:31:16.723Z,27.26
2018-07-07T19:32:16.601Z,27.34
2018-07-07T19:33:16.576Z,27.30
2018-07-07T19:34:16.582Z,27.34
2018-07-07T19:35:16.595Z,27.46
2018-07-07T19:36:16.613Z,27.55
2018-07-07T19:37:16.502Z,27.75
2018-07-07T19:38:16.476Z,27.76
2018-07-07T19:39:16.459Z,27.75
2018-07-07T19:40:16.425Z,27.75
2018-07-07T19:41:16.394Z,27.74
2018-07-07T19:42:16.478Z,27.86
2018-07-07T19:43:16.376Z,27.86
2018-07-07T19:44:16.333Z,28.09
2018-07-07T19:45:16.321Z,28.18
2018-07-07T19:46:16.340Z,28.08
2018-07-07T19:47:16.296Z,28.23
2018-07-07T19:48:16.362Z,28.27
2018-07-07T19:49:16.210Z,28.42
2018-07-07T19:50:16.200Z,28.70
2018-07-07T19:51:16.267Z,28.97
2018-07-07T19:52:16.149Z,29.24
2018-07-07T19:53:16.236Z,29.38
2018-07-07T19:54:16.120Z,29.65
2018-07-07T19:55:16.088Z,29.92
2018-07-07T19:56:16.067Z,30.06
2018-07-07T19:57:16.091Z,30.14
2018-07-07T19:58:16.125Z,30.47
2018-07-07T19:59:16.055Z,30.62
2018-07-07T20:00:15.991Z,30.70
2018-07-07T20:01:15.969Z,30.82
2018-07-07T20:02:15.939Z,30.71
2018-07-07T20:03:15.989Z,30.64
2018-07-07T20:04:15.897Z,30.62
2018-07-07T20:05:16.410Z,30.49
2018-07-07T20:06:15.930Z,30.60
2018-07-07T20:07:16.047Z,30.66
2018-07-07T20:08:15.877Z,30.79
2018-07-07T20:09:15.790Z,30.73
2018-07-07T20:10:15.861Z,31.12
2018-07-07T20:11:15.752Z,31.26
2018-07-07T20:12:15.715Z,31.34
2018-07-07T20:13:15.850Z,31.33
2018-07-07T20:14:15.858Z,31.41
2018-07-07T20:15:15.799Z,31.59
2018-07-07T20:16:16.953Z,31.55
2018-07-07T20:17:15.733Z,31.52
2018-07-07T20:18:15.787Z,31.26
2018-07-07T20:19:15.904Z,31.33
2018-07-07T20:20:15.674Z,31.10
2018-07-07T20:21:15.647Z,31.19
2018-07-07T20:22:15.620Z,31.25
2018-07-07T20:23:15.711Z,31.08
2018-07-07T20:24:15.605Z,31.04
2018-07-07T20:25:15.564Z,31.04
2018-07-07T20:26:15.526Z,31.08
2018-07-07T20:27:15.468Z,31.10
2018-07-07T20:28:15.431Z,31.19
2018-07-07T20:29:15.479Z,31.26
2018-07-07T20:30:15.359Z,31.10
2018-07-07T20:31:15.469Z,30.99
2018-07-07T20:32:15.392Z,30.94
2018-07-07T20:33:15.279Z,30.75
2018-07-07T20:34:15.323Z,30.45
2018-07-07T20:35:15.341Z,30.10
2018-07-07T20:36:15.237Z,30.04
2018-07-07T20:37:15.226Z,29.87
2018-07-07T20:38:15.182Z,29.63
2018-07-07T20:39:15.230Z,29.40
2018-07-07T20:40:15.260Z,29.33
2018-07-07T20:41:15.111Z,29.33
2018-07-07T20:42:15.119Z,29.30
2018-07-07T20:43:15.094Z,29.28
2018-07-07T20:44:15.054Z,29.23
2018-07-07T20:45:15.138Z,29.17
2018-07-07T20:46:15.046Z,29.21
2018-07-07T20:47:15.026Z,29.28
2018-07-07T20:48:14.978Z,29.30
2018-07-07T20:49:14.979Z,29.21
2018-07-07T20:50:15.057Z,29.20
2018-07-07T20:51:14.954Z,29.23
2018-07-07T20:52:14.900Z,29.21
2018-07-07T20:53:14.864Z,29.14
2018-07-07T20:54:14.907Z,29.18
2018-07-07T20:55:14.947Z,29.17
2018-07-07T20:56:14.817Z,29.18
2018-07-07T20:57:14.800Z,29.17
2018-07-07T20:58:14.817Z,29.26
2018-07-07T20:59:14.776Z,29.35
2018-07-07T21:00:14.833Z,29.47
2018-07-07T21:01:14.708Z,29.36
2018-07-07T21:02:14.765Z,29.30
2018-07-07T21:03:14.680Z,29.33
2018-07-07T21:04:14.640Z,29.38
2018-07-07T21:05:14.724Z,29.42
2018-07-07T21:06:14.716Z,29.42
2018-07-07T21:07:14.584Z,29.52
2018-07-07T21:08:14.579Z,29.66
2018-07-07T21:09:14.540Z,29.98
2018-07-07T21:10:14.544Z,29.97
2018-07-07T21:11:14.644Z,30.10
2018-07-07T21:12:14.538Z,30.22
2018-07-07T21:13:14.476Z,30.32
2018-07-07T21:14:14.439Z,30.45
2018-07-07T21:15:14.411Z,30.42
2018-07-07T21:16:14.402Z,30.21
2018-07-07T21:17:14.466Z,30.42
2018-07-07T21:18:14.352Z,30.59
2018-07-07T21:19:14.337Z,30.73
2018-07-07T21:20:14.302Z,30.96
2018-07-07T21:21:14.318Z,31.03
2018-07-07T21:22:14.276Z,31.08
2018-07-07T21:23:15.618Z,30.93
2018-07-07T21:24:15.050Z,30.93
2018-07-07T21:25:14.520Z,30.97
2018-07-07T21:26:14.440Z,30.91
2018-07-07T21:27:14.303Z,30.88
2018-07-07T21:28:14.132Z,30.77
2018-07-07T21:29:14.235Z,30.73
2018-07-07T21:30:14.117Z,30.70
2018-07-07T21:31:14.075Z,30.62
2018-07-07T21:32:14.055Z,30.57
2018-07-07T21:33:14.036Z,30.32
2018-07-07T21:34:14.125Z,30.25
2018-07-07T21:35:14.005Z,30.07
2018-07-07T21:36:13.988Z,30.10
2018-07-07T21:37:13.963Z,30.19
2018-07-07T21:38:13.958Z,30.28
2018-07-07T21:39:14.022Z,30.11
2018-07-07T21:40:13.892Z,30.16
2018-07-07T21:41:13.872Z,30.16
2018-07-07T21:42:13.849Z,30.19
2018-07-07T21:43:13.827Z,30.21
2018-07-07T21:44:13.930Z,30.11
2018-07-07T21:45:13.803Z,29.98
2018-07-07T21:46:13.768Z,30.04
2018-07-07T21:47:13.788Z,29.97
2018-07-07T21:48:13.744Z,30.00
2018-07-07T21:49:13.948Z,29.95
2018-07-07T21:50:13.705Z,29.89
2018-07-07T21:51:13.665Z,29.73
2018-07-07T21:52:13.662Z,29.66
2018-07-07T21:53:13.633Z,29.51
2018-07-07T21:54:13.793Z,29.61
2018-07-07T21:55:13.590Z,29.58
2018-07-07T21:56:13.564Z,29.61
2018-07-07T21:57:13.530Z,29.69
2018-07-07T21:58:13.537Z,29.82
2018-07-07T21:59:13.542Z,29.85
2018-07-07T22:00:13.707Z,29.88
2018-07-07T22:01:13.580Z,29.95
2018-07-07T22:02:13.454Z,29.79
2018-07-07T22:03:13.411Z,29.87
2018-07-07T22:04:13.403Z,29.92
2018-07-07T22:05:13.358Z,29.97
2018-07-07T22:06:13.490Z,29.94
2018-07-07T22:07:13.360Z,30.09
2018-07-07T22:08:13.690Z,30.09
2018-07-07T22:09:13.339Z,30.14
2018-07-07T22:10:13.292Z,30.16
2018-07-07T22:11:13.324Z,30.21
2018-07-07T22:12:13.340Z,30.13
2018-07-07T22:13:13.184Z,30.07
2018-07-07T22:14:13.201Z,30.22
2018-07-07T22:15:13.173Z,30.16
2018-07-07T22:16:13.214Z,30.25
2018-07-07T22:17:13.257Z,30.21
2018-07-07T22:18:13.134Z,30.22
2018-07-07T22:19:13.090Z,30.16
2018-07-07T22:20:13.051Z,30.09
2018-07-07T22:21:13.017Z,30.13
2018-07-07T22:22:13.096Z,29.88
2018-07-07T22:23:13.004Z,29.95
2018-07-07T22:24:12.985Z,30.04
2018-07-07T22:25:12.934Z,29.94
2018-07-07T22:26:12.945Z,29.94
2018-07-07T22:27:13.028Z,29.95
2018-07-07T22:28:12.970Z,30.07
2018-07-07T22:29:12.875Z,30.07
2018-07-07T22:30:12.968Z,30.13
2018-07-07T22:31:12.835Z,30.09
2018-07-07T22:32:12.938Z,30.06
2018-07-07T22:33:12.794Z,30.02
2018-07-07T22:34:12.786Z,29.95
2018-07-07T22:35:12.755Z,29.87
2018-07-07T22:36:12.720Z,29.92
2018-07-07T22:37:12.836Z,29.89
2018-07-07T22:38:12.775Z,30.03
2018-07-07T22:39:12.702Z,29.98
2018-07-07T22:40:12.679Z,29.97
2018-07-07T22:41:12.633Z,30.00
2018-07-07T22:42:12.624Z,29.95
2018-07-07T22:43:12.600Z,29.95
2018-07-07T22:44:12.726Z,29.76
2018-07-07T22:45:12.584Z,29.61
2018-07-07T22:46:12.537Z,29.65
2018-07-07T22:47:12.508Z,29.48
2018-07-07T22:48:12.632Z,29.60
2018-07-07T22:49:12.632Z,29.52
2018-07-07T22:50:12.578Z,29.48
2018-07-07T22:51:12.429Z,29.38
2018-07-07T22:52:12.398Z,29.29
2018-07-07T22:53:12.374Z,29.20
2018-07-07T22:54:12.352Z,29.05
2018-07-07T22:55:12.337Z,28.92
2018-07-07T22:56:12.555Z,28.82
2018-07-07T22:57:12.305Z,28.90
2018-07-07T22:58:12.289Z,28.91
2018-07-07T22:59:12.244Z,28.97
2018-07-07T23:00:12.278Z,29.01
2018-07-07T23:01:12.229Z,29.03
2018-07-07T23:02:12.303Z,28.94
2018-07-07T23:03:12.136Z,28.91
2018-07-07T23:04:12.171Z,28.90
2018-07-07T23:05:12.150Z,28.94
2018-07-07T23:06:12.102Z,28.97
2018-07-07T23:07:12.280Z,28.80
2018-07-07T23:08:12.077Z,28.86
2018-07-07T23:09:12.053Z,28.86
2018-07-07T23:10:12.068Z,28.83
2018-07-07T23:11:11.998Z,28.91
2018-07-07T23:12:12.084Z,28.92
2018-07-07T23:13:12.028Z,28.91
2018-07-07T23:14:12.023Z,28.92
2018-07-07T23:15:12.035Z,28.79
2018-07-07T23:16:11.885Z,28.65
2018-07-07T23:17:11.985Z,28.57
2018-07-07T23:18:11.861Z,28.58
2018-07-07T23:19:11.825Z,28.45
2018-07-07T23:20:11.823Z,28.38
2018-07-07T23:21:12.307Z,28.39
2018-07-07T23:22:11.802Z,28.26
2018-07-07T23:23:11.902Z,28.26
2018-07-07T23:24:11.766Z,28.23
2018-07-07T23:25:11.707Z,28.23
2018-07-07T23:26:11.725Z,28.18
2018-07-07T23:27:11.658Z,28.17
2018-07-07T23:28:11.748Z,28.14
2018-07-07T23:29:11.636Z,28.14
2018-07-07T23:30:11.612Z,28.21
2018-07-07T23:31:11.574Z,28.24
2018-07-07T23:32:11.549Z,28.23
2018-07-07T23:33:11.565Z,28.20
2018-07-07T23:34:11.629Z,28.26
2018-07-07T23:35:11.526Z,28.16
2018-07-07T23:36:11.459Z,28.20
2018-07-07T23:37:11.431Z,28.18
2018-07-07T23:38:11.436Z,28.23
2018-07-07T23:39:11.407Z,28.21
2018-07-07T23:40:11.465Z,28.23
2018-07-07T23:41:11.367Z,28.20
2018-07-07T23:42:11.335Z,28.20
2018-07-07T23:43:11.365Z,28.11
2018-07-07T23:44:11.382Z,28.06
2018-07-07T23:45:11.378Z,28.03
2018-07-07T23:46:11.258Z,28.03
2018-07-07T23:47:11.238Z,27.99
2018-07-07T23:48:11.211Z,27.90
2018-07-07T23:49:11.166Z,27.90
2018-07-07T23:50:11.276Z,27.87
2018-07-07T23:51:11.140Z,27.81
2018-07-07T23:52:11.131Z,27.84
2018-07-07T23:53:11.146Z,27.87
2018-07-07T23:54:11.063Z,27.84
2018-07-07T23:55:11.218Z,27.87
2018-07-07T23:56:11.056Z,27.80
2018-07-07T23:57:11.019Z,27.80
2018-07-07T23:58:11.045Z,27.81
2018-07-07T23:59:10.965Z,27.79
